Latest Weather Observations for Barrow Island

IDW60801

Issued at 8:04 pm WST Thursday 25 May 2017 (issued every 30 minutes, with the page automatically refreshed every 10 minutes)

About weather observations | Map of weather stations | Latest weather observations for WA | Other Formats
Station Details ID: 005094 Name: BARROW ISLAND AIRPORT Lat: -20.87 Lon: 115.41 Height: 6.4 m
Data from the previous 72 hours. | See also: Recent months at Barrow Island
Date/Time
WST
Temp
°C
App
Temp
°C
Dew
Point
°C
Rel
Hum
%
Delta-T
°C
Wind Press
QNH
hPa
Press
MSL
hPa
Rain since
9am
mm
Dir  Spd
km/h
Gust
km/h
Spd
kts
Gust
kts
25/08:00pm 23.5 24.3 18.2 72 3.3 NNW 11 13 6 7 1015.2 - 0.0
25/07:30pm 23.7 24.5 17.4 68 3.9 NNW 9 11 5 6 1015.0 - 0.0
25/07:00pm 24.4 25.1 17.1 63 4.5 NW 9 11 5 6 1014.8 - 0.0
25/06:30pm 24.8 26.9 19.0 70 3.7 N 6 7 3 4 1014.5 - 0.0
25/06:00pm 25.6 27.7 19.3 68 4.0 NNE 7 9 4 5 1014.3 1014.3 0.0
25/05:30pm 26.5 27.5 19.4 65 4.6 NNE 13 17 7 9 1014.0 - 0.0
25/05:00pm 27.0 27.8 19.9 65 4.6 NE 15 17 8 9 1013.8 - 0.0
25/04:30pm 27.5 27.7 19.3 61 5.3 NE 17 20 9 11 1013.5 - 0.0
25/04:00pm 27.6 26.8 18.0 55 6.1 NE 19 22 10 12 1013.5 - 0.0
25/03:30pm 28.0 27.2 18.1 55 6.3 NE 19 20 10 11 1013.5 - 0.0
25/03:00pm 28.4 28.1 19.1 57 6.0 ENE 19 20 10 11 1013.4 1013.4 0.0
25/02:30pm 28.1 28.4 18.8 57 6.0 ENE 15 17 8 9 1013.5 - 0.0
25/02:00pm 27.3 29.1 19.6 62 5.0 E 9 13 5 7 1013.7 - 0.0
25/01:30pm 27.2 28.7 19.0 61 5.3 E 9 11 5 6 1014.0 - 0.0
25/01:00pm 27.7 28.7 19.5 61 5.3 E 13 17 7 9 1014.3 - 0.0
25/12:30pm 27.5 28.1 18.5 58 5.7 ENE 13 15 7 8 1014.7 - 0.0
25/12:00pm 28.1 28.8 18.8 57 6.0 E 13 15 7 8 1015.1 1015.1 0.0
25/11:30am 26.6 26.8 18.5 61 5.2 ESE 15 17 8 9 1015.3 - 0.0
25/11:00am 27.2 27.9 18.8 60 5.4 SE 13 15 7 8 1015.6 - 0.0
25/10:30am 27.0 27.5 18.3 59 5.5 SE 13 13 7 7 1016.0 - 0.0
25/10:00am 26.5 27.2 18.9 63 4.9 SE 13 13 7 7 1016.1 - 0.0
25/09:30am 25.9 26.6 18.8 65 4.5 ESE 13 15 7 8 1016.0 - 0.0
25/09:00am 25.7 26.1 19.1 67 4.2 SE 15 17 8 9 1016.0 1016.0 0.0
25/08:30am 25.3 25.6 18.7 67 4.2 SE 15 17 8 9 1015.9 - 0.0
25/08:00am 24.3 24.3 18.2 68 3.8 SSE 15 17 8 9 1015.6 - 0.0
25/07:30am 23.8 23.4 18.0 70 3.6 SSE 17 19 9 10 1015.4 - 0.0
25/07:00am 23.1 23.0 17.8 72 3.3 S 15 17 8 9 1015.1 - 0.0
25/06:30am 22.9 22.5 18.0 74 3.1 SSE 17 20 9 11 1014.8 - 0.0
25/06:00am 22.7 22.1 18.5 77 2.6 S 19 20 10 11 1014.7 1014.7 0.0
25/05:30am 22.8 22.3 19.2 80 2.3 S 20 24 11 13 1014.5 - 0.0
25/05:00am 22.8 22.3 19.0 79 2.4 SSE 20 22 11 12 1014.4 - 0.0
25/04:30am 22.7 22.6 19.5 82 2.0 S 19 20 10 11 1014.4 - 0.0
25/04:00am 23.1 23.6 20.1 83 1.9 SSE 17 20 9 11 1014.5 - 0.0
25/03:30am 23.5 22.4 19.4 78 2.6 S 24 28 13 15 1014.5 - 0.0
25/03:00am 23.7 23.7 19.8 79 2.5 S 19 20 10 11 1014.5 1014.5 0.0
25/02:30am 23.6 24.4 19.9 80 2.4 S 15 17 8 9 1014.7 - 0.0
25/02:00am 23.7 24.8 20.4 82 2.1 S 15 17 8 9 1014.8 - 0.0
25/01:30am 23.8 25.1 20.9 84 1.9 S 15 17 8 9 1015.0 - 0.0
25/01:00am 23.9 25.0 21.2 85 1.8 S 17 19 9 10 1015.2 - 0.0
25/12:30am 24.0 24.6 21.1 84 1.9 S 19 20 10 11 1015.3 - 0.0
25/12:00am 24.0 24.5 20.9 83 2.0 S 19 22 10 12 1015.4 1015.4 0.0
 
Date/Time
WST
Temp
°C
App
Temp
°C
Dew
Point
°C
Rel
Hum
%
Delta-T
°C
Wind Press
QNH
hPa
Press
MSL
hPa
Rain since
9am
mm
Dir  Spd
km/h
Gust
km/h
Spd
kts
Gust
kts
24/11:30pm 24.1 25.2 21.2 84 1.9 SSW 17 19 9 10 1015.6 - 0.0
24/11:00pm 24.1 25.3 21.4 85 1.8 S 17 20 9 11 1015.7 - 0.0
24/10:30pm 24.0 25.6 21.5 86 1.7 SSW 15 17 8 9 1015.6 - 0.0
24/10:00pm 23.8 25.5 21.7 88 1.4 SSW 15 17 8 9 1015.6 - 0.0
24/09:30pm 22.8 25.6 20.9 89 1.2 SSW 7 9 4 5 1015.7 - 0.0
24/09:00pm 21.4 22.9 19.0 86 1.5 SW 9 11 5 6 1015.8 1015.8 0.0
24/08:30pm 21.5 22.8 18.5 83 1.9 WSW 9 11 5 6 1015.8 - 0.0
24/08:00pm 22.4 24.3 19.0 81 2.2 SSW 7 7 4 4 1015.7 - 0.0
24/07:30pm 23.8 26.7 21.1 85 1.8 S 7 9 4 5 1015.5 - 0.0
24/07:00pm 24.0 27.0 20.9 83 2.0 SSE 6 7 3 4 1015.2 - 0.0
24/06:30pm 24.1 26.8 20.6 81 2.3 S 7 9 4 5 1015.0 - 0.0
24/06:00pm 24.7 27.3 20.4 77 2.8 SW 7 13 4 7 1014.6 1014.6 0.0
24/05:30pm 25.5 27.7 20.5 74 3.3 ESE 9 9 5 5 1014.2 - 0.0
24/05:00pm 26.1 28.6 20.2 70 3.8 E 7 9 4 5 1014.0 - 0.0
24/04:30pm 26.5 28.3 20.3 68 4.1 E 11 13 6 7 1013.8 - 0.0
24/04:00pm 27.0 28.4 20.3 66 4.4 ENE 13 15 7 8 1013.7 - 0.0
24/03:30pm 27.0 27.9 20.1 66 4.5 ENE 15 17 8 9 1013.7 - 0.0
24/03:00pm 27.1 27.9 19.9 64 4.7 ENE 15 19 8 10 1013.7 1013.7 0.0
24/02:30pm 27.1 28.0 20.9 69 4.1 ENE 17 20 9 11 1013.7 - 0.0
24/02:00pm 27.2 28.2 21.0 69 4.1 ENE 17 20 9 11 1014.0 - 0.0
24/01:30pm 27.1 27.5 20.7 68 4.2 ENE 19 22 10 12 1014.3 - 0.0
24/01:00pm 27.2 26.9 19.5 62 5.0 ENE 20 24 11 13 1014.7 - 0.0
24/12:30pm 26.9 26.3 19.8 65 4.6 ENE 22 26 12 14 1015.1 - 0.0
24/12:00pm 27.0 26.3 18.6 60 5.4 ENE 20 24 11 13 1015.5 1015.5 0.0
24/11:30am 26.7 26.3 19.3 64 4.8 E 20 24 11 13 1016.0 - 0.0
24/11:00am 26.5 26.9 20.6 70 3.9 E 19 22 10 12 1016.2 - 0.0
24/10:30am 26.7 28.2 20.5 69 4.1 E 13 17 7 9 1016.5 - 0.0
24/10:00am 26.5 27.5 19.4 65 4.6 E 13 17 7 9 1016.6 - 0.0
24/09:30am 25.9 25.2 17.3 59 5.4 E 17 20 9 11 1016.7 - 0.0
24/09:00am 25.0 23.8 16.2 58 5.4 ESE 17 19 9 10 1016.6 1016.6 0.0
24/08:30am 24.9 24.1 16.1 58 5.4 SE 15 17 8 9 1016.4 - 0.0
24/08:00am 24.1 23.8 16.4 62 4.7 SE 13 15 7 8 1016.2 - 0.0
24/07:30am 23.2 23.2 17.2 69 3.7 SSE 13 15 7 8 1015.8 - 0.0
24/07:00am 22.6 23.4 18.2 76 2.8 SE 11 13 6 7 1015.5 - 0.0
24/06:30am 22.4 23.1 18.0 76 2.7 SE 11 13 6 7 1015.3 - 0.0
24/06:00am 22.5 23.3 18.1 76 2.7 SE 11 13 6 7 1015.1 1015.1 0.0
24/05:30am 22.6 23.0 18.2 76 2.8 SE 13 17 7 9 1014.9 - 0.0
24/05:00am 22.8 23.2 18.1 75 2.9 ESE 13 15 7 8 1014.7 - 0.0
24/04:30am 22.7 23.0 17.8 74 3.0 ESE 13 15 7 8 1014.7 - 0.0
24/04:00am 22.7 22.7 17.2 71 3.4 SSE 13 17 7 9 1014.6 - 0.0
24/03:30am 22.7 23.0 16.9 70 3.6 SSE 11 13 6 7 1014.7 - 0.0
24/03:00am 22.9 22.8 16.9 69 3.7 SSE 13 15 7 8 1014.8 1014.8 0.0
24/02:30am 23.1 23.0 17.8 72 3.3 SSE 15 19 8 10 1014.8 - 0.0
24/02:00am 23.2 22.5 17.4 70 3.6 SSE 17 19 9 10 1015.2 - 0.0
24/01:30am 23.1 22.7 18.0 73 3.2 SSE 17 19 9 10 1015.4 - 0.0
24/01:00am 23.2 23.2 19.8 81 2.2 S 19 20 10 11 1015.6 - 0.0
24/12:30am 22.7 23.8 19.7 83 1.9 S 13 17 7 9 1015.7 - 0.0
24/12:00am 21.5 23.1 18.3 82 2.0 SSW 7 9 4 5 1015.8 1015.8 0.0
 
Date/Time
WST
Temp
°C
App
Temp
°C
Dew
Point
°C
Rel
Hum
%
Delta-T
°C
Wind Press
QNH
hPa
Press
MSL
hPa
Rain since
9am
mm
Dir  Spd
km/h
Gust
km/h
Spd
kts
Gust
kts
23/11:30pm 21.6 23.4 18.8 84 1.8 S 7 7 4 4 1016.0 - 0.0
23/11:00pm 20.9 22.3 17.3 80 2.2 SW 6 7 3 4 1016.2 - 0.0
23/10:30pm 20.8 22.1 17.2 80 2.2 SW 6 7 3 4 1016.2 - 0.0
23/10:00pm 20.3 21.1 16.3 78 2.4 WSW 7 7 4 4 1016.1 - 0.0
23/09:30pm 20.2 20.6 15.4 74 2.8 WSW 7 9 4 5 1016.0 - 0.0
23/09:00pm 20.5 22.3 15.5 73 3.0 CALM 0 4 0 2 1015.8 1015.8 0.0
23/08:30pm 21.6 22.8 16.8 74 2.9 SW 6 7 3 4 1015.6 - 0.0
23/08:00pm 21.9 24.1 16.4 71 3.3 CALM 0 0 0 0 1015.4 - 0.0
23/07:30pm 21.9 22.6 15.7 68 3.7 N 6 7 3 4 1015.2 - 0.0
23/07:00pm 22.6 22.9 15.9 66 4.0 NNE 9 11 5 6 1014.8 - 0.0
23/06:30pm 22.7 22.7 15.3 63 4.4 NNE 9 11 5 6 1014.6 - 0.0
23/06:00pm 24.0 24.3 16.0 61 4.9 N 9 13 5 7 1014.3 1014.3 0.0
23/05:30pm 25.3 24.7 17.5 62 4.9 NE 17 20 9 11 1014.0 - 0.0
23/05:00pm 26.2 24.4 17.0 57 5.7 NNE 22 28 12 15 1013.6 - 0.0
23/04:30pm 26.8 24.1 15.5 50 6.9 NNE 24 28 13 15 1013.5 - 0.0
23/04:00pm 27.3 24.0 15.0 47 7.4 NNE 26 33 14 18 1013.5 - 0.0
23/03:30pm 27.4 24.5 15.1 47 7.5 NE 24 28 13 15 1013.6 - 0.0
23/03:00pm 27.4 23.9 14.4 45 7.8 NE 26 30 14 16 1013.7 1013.7 0.0
23/02:30pm 27.4 25.9 16.7 52 6.7 NE 20 24 11 13 1013.9 - 0.0
23/02:00pm 27.5 25.9 16.1 49 7.0 ENE 19 22 10 12 1014.2 - 0.0
23/01:30pm 27.3 25.6 16.3 51 6.8 ENE 20 24 11 13 1014.6 - 0.0
23/01:00pm 27.4 26.2 16.1 50 7.0 E 17 20 9 11 1015.2 - 0.0
23/12:30pm 27.5 27.6 16.5 51 6.8 E 11 15 6 8 1015.7 - 0.0
23/12:00pm 26.2 25.0 15.0 50 6.7 ESE 15 17 8 9 1016.1 1016.1 0.0
23/11:30am 25.7 25.0 16.3 56 5.8 ESE 15 19 8 10 1016.3 - 0.0
23/11:00am 26.4 25.6 16.0 52 6.4 ESE 15 17 8 9 1016.7 - 0.0
23/10:30am 25.7 24.1 16.0 55 5.9 E 19 20 10 11 1016.9 - 0.0
23/10:00am 24.9 23.4 15.2 54 5.8 ESE 17 19 9 10 1017.3 - 0.0
23/09:30am 24.3 22.4 15.2 57 5.5 ESE 19 22 10 12 1017.5 - 0.0
23/09:00am 23.5 21.3 14.5 57 5.3 SE 19 22 10 12 1017.3 1017.3 0.0
23/08:30am 22.7 20.0 14.5 60 4.8 SSE 22 26 12 14 1017.1 - 0.0
23/08:00am 22.4 19.8 14.8 62 4.5 SSE 22 26 12 14 1016.7 - 0.0
23/07:30am 21.7 18.6 14.4 63 4.3 S 24 28 13 15 1016.2 - 0.0
23/07:00am 21.3 18.5 14.2 64 4.1 SSE 22 26 12 14 1015.9 - 0.0
23/06:30am 21.4 18.8 14.8 66 3.9 S 22 26 12 14 1015.8 - 0.0
23/06:00am 21.3 18.0 14.9 67 3.8 S 26 28 14 15 1015.6 1015.6 0.0
23/05:30am 21.4 17.7 13.8 62 4.4 S 26 30 14 16 1015.4 - 0.0
23/05:00am 21.5 18.4 14.6 65 4.0 S 24 28 13 15 1015.3 - 0.0
23/04:30am 21.6 18.0 14.3 63 4.3 S 26 30 14 16 1015.3 - 0.0
23/04:00am 21.9 17.9 15.3 66 3.9 S 30 33 16 18 1015.3 - 0.0
23/03:30am 22.3 18.8 15.6 66 4.0 S 28 32 15 17 1015.1 - 0.0
23/03:00am 22.4 18.8 16.2 68 3.7 S 30 33 16 18 1015.2 1015.2 0.0
23/02:30am 22.4 19.5 16.0 67 3.9 S 26 30 14 16 1015.4 - 0.0
23/02:00am 22.8 19.7 15.6 64 4.3 S 26 30 14 16 1015.7 - 0.0
23/01:30am 22.9 20.8 16.2 66 4.1 S 22 26 12 14 1015.8 - 0.0
23/01:00am 23.0 21.2 15.6 63 4.4 S 19 22 10 12 1016.1 - 0.0
23/12:30am 23.1 20.6 17.1 69 3.7 S 26 30 14 16 1016.2 - 0.0
23/12:00am 23.4 21.6 16.9 67 4.0 S 22 26 12 14 1016.2 1016.2 0.0
 
Date/Time
WST
Temp
°C
App
Temp
°C
Dew
Point
°C
Rel
Hum
%
Delta-T
°C
Wind Press
QNH
hPa
Press
MSL
hPa
Rain since
9am
mm
Dir  Spd
km/h
Gust
km/h
Spd
kts
Gust
kts
22/11:30pm 23.6 21.2 16.4 64 4.4 S 24 28 13 15 1016.4 - 0.0
22/11:00pm 23.6 21.4 15.9 62 4.7 SSW 22 28 12 15 1016.5 - 0.0
22/10:30pm 23.7 21.3 16.5 64 4.4 SSW 24 28 13 15 1016.6 - 0.0
22/10:00pm 23.9 20.5 15.9 61 4.8 SSW 28 33 15 18 1016.3 - 0.0
22/09:30pm 23.7 20.1 16.2 63 4.6 SW 30 33 16 18 1016.3 - 0.0
22/09:00pm 23.7 20.1 16.2 63 4.6 SW 30 35 16 19 1016.1 1016.1 0.0
22/08:30pm 23.6 19.9 15.9 62 4.7 SW 30 35 16 19 1015.9 - 0.0

Other Formats:

Comma delimited format used in spreadsheet applications
http://www.bom.gov.au/fwo/IDW60801/IDW60801.95304.axf

JavaScript Object Notation format (JSON) in row-major order
http://www.bom.gov.au/fwo/IDW60801/IDW60801.95304.json